Ajaccio-Napoleon Bonaparte Airport


Codes: LFKJ/AJA
Name: Ajaccio-Napoleon Bonaparte Airport
City: Ajaccio/Napoleon Bonaparte
Country: France
Elevation: 18 ft.
Wikipedia:

Photos at Ajaccio-Napoleon Bonaparte Airport


   Photos courtesy of SpottingLog. You can add your own sightings and photos by signing up for a free trial today.



No photos found.

Weather at Ajaccio-Napoleon Bonaparte Airport


Time (UTC)DescriptionTempratureWindCloud coverageVisibilityPressureHumidity
16-Jun-2024 03:00Clear Sky17°C4 mph, NE4%10000m1013hPa81%
16-Jun-2024 06:00Clear Sky19°C0 mph, SW9%10000m1013hPa69%
16-Jun-2024 09:00Scattered Clouds23°C4 mph, W43%10000m1014hPa59%
16-Jun-2024 12:00Scattered Clouds24°C9 mph, W28%10000m1014hPa54%
16-Jun-2024 15:00Clear Sky23°C7 mph, W2%10000m1014hPa50%
16-Jun-2024 18:00Scattered Clouds21°C4 mph, NW28%10000m1015hPa63%
16-Jun-2024 21:00Scattered Clouds18°C4 mph, NW34%10000m1016hPa64%
17-Jun-2024 00:00Few Clouds18°C7 mph, E23%10000m1016hPa46%
17-Jun-2024 03:00Overcast Clouds18°C4 mph, NE85%10000m1016hPa44%
17-Jun-2024 06:00Scattered Clouds22°C0 mph, SE47%10000m1016hPa45%
17-Jun-2024 09:00Clear Sky24°C7 mph, W1%10000m1017hPa38%
17-Jun-2024 12:00Clear Sky24°C7 mph, W0%10000m1017hPa44%
17-Jun-2024 15:00Clear Sky25°C7 mph, W0%10000m1016hPa44%
17-Jun-2024 18:00Clear Sky22°C2 mph, SW0%10000m1016hPa62%
17-Jun-2024 21:00Clear Sky21°C4 mph, E0%10000m1016hPa61%
18-Jun-2024 00:00Clear Sky21°C7 mph, NE0%10000m1016hPa53%
18-Jun-2024 03:00Clear Sky22°C4 mph, E0%10000m1016hPa49%
18-Jun-2024 06:00Clear Sky26°C2 mph, E0%10000m1015hPa49%
18-Jun-2024 09:00Clear Sky29°C9 mph, W0%10000m1015hPa38%
18-Jun-2024 12:00Clear Sky28°C9 mph, W0%10000m1016hPa40%
18-Jun-2024 15:00Clear Sky28°C9 mph, W4%10000m1015hPa47%
18-Jun-2024 18:00Clear Sky27°C4 mph, NE6%10000m1015hPa56%
18-Jun-2024 21:00Scattered Clouds25°C4 mph, E37%10000m1015hPa54%
19-Jun-2024 00:00Few Clouds25°C4 mph, NE22%10000m1016hPa50%
19-Jun-2024 03:00Clear Sky25°C7 mph, NE10%10000m1015hPa49%
19-Jun-2024 06:00Clear Sky27°C0 mph, SW5%10000m1016hPa52%
19-Jun-2024 09:00Clear Sky28°C7 mph, W7%10000m1016hPa49%
19-Jun-2024 12:00Few Clouds30°C7 mph, W23%10000m1016hPa43%
19-Jun-2024 15:00Scattered Clouds29°C4 mph, NW41%10000m1016hPa45%
19-Jun-2024 18:00Broken Clouds27°C4 mph, E60%10000m1016hPa57%
19-Jun-2024 21:00Clear Sky26°C2 mph, E6%10000m1017hPa55%
20-Jun-2024 00:00Few Clouds26°C7 mph, E17%10000m1016hPa45%
20-Jun-2024 03:00Scattered Clouds25°C2 mph, E32%10000m1016hPa51%
20-Jun-2024 06:00Scattered Clouds30°C4 mph, E48%10000m1015hPa40%
20-Jun-2024 09:00Overcast Clouds34°C7 mph, W98%10000m1015hPa32%
20-Jun-2024 12:00Overcast Clouds34°C4 mph, W99%10000m1015hPa35%
20-Jun-2024 15:00Overcast Clouds33°C7 mph, S85%10000m1014hPa42%
20-Jun-2024 18:00Overcast Clouds29°C7 mph, NW93%10000m1014hPa56%
20-Jun-2024 21:00Overcast Clouds25°C9 mph, E99%10000m1016hPa71%
21-Jun-2024 00:00Overcast Clouds28°C4 mph, SW100%10000m1015hPa51%